Friday, February 23, 2018, 1:42 PM EST
Back to Local

KTHV, York Airport

Location: Spring Grove, PA, United States Lat: 39.917
Local Time: 1:42 PM EST (18:42 GMT) Lon: -76.883
Time Zone: US/Eastern Elev: 478 ft

Show me the last for .
Show Decoded

2018-02-23 13:08 METAR KTHV 231808Z AUTO 16005KT 7SM OVC008 05/05 A3042 RMK AO2 CIG 007V013
                 PRESFR T00500050 =
2018-02-23 12:53 METAR KTHV 231753Z AUTO 16006KT 10SM OVC007 05/04 A3044 RMK AO2 CIG 006V011
                 PRESFR SLP315 60008 T00500044 10050 20033 58036 =
2018-02-23 12:37 METAR KTHV 231737Z AUTO VRB03KT 3SM BR OVC007 05/05 A3046 RMK AO2 CIG 005V010
                 T00500050 =
2018-02-23 12:19 METAR KTHV 231719Z AUTO 15006KT 5SM BR OVC009 05/05 A3047 RMK AO2 CIG 004V014
                 T00500050 =
2018-02-23 12:07 METAR KTHV 231707Z AUTO 14006KT 2 1/2SM BR BKN007 OVC011 04/04 A3048 RMK AO2 CIG
                 004V009 T00440044 =
2018-02-23 11:53 METAR KTHV 231653Z AUTO 12006KT 6SM BR OVC008 04/04 A3050 RMK AO2 CIG 005V012
                 SLP333 T00440044 =
2018-02-23 11:46 METAR KTHV 231646Z AUTO 13005KT 5SM BR OVC009 04/04 A3050 RMK AO2 CIG 005V012
                 T00440044 =
2018-02-23 10:53 METAR KTHV 231553Z AUTO 13007KT 9SM OVC007 04/04 A3052 RMK AO2 CIG 005V010
                 SLP342 T00440039 =
2018-02-23 10:26 METAR KTHV 231526Z AUTO 13005KT 3SM BR OVC007 04/04 A3053 RMK AO2 CIG 003V010
                 T00390039 =
2018-02-23 10:19 METAR KTHV 231519Z AUTO 11005KT 3SM BR BKN004 OVC009 04/04 A3054 RMK AO2 CIG
                 003V007 T00390039 =
2018-02-23 10:11 METAR KTHV 231511Z AUTO 12003KT 2SM BR BKN004 OVC009 03/03 A3054 RMK AO2
                 T00330033 =
2018-02-23 09:53 METAR KTHV 231453Z AUTO 10005KT 1 1/2SM BR BKN006 OVC010 03/03 A3055 RMK AO2 CIG
                 003V008 SLP351 60008 T00330033 56008 =
2018-02-23 09:49 METAR KTHV 231449Z AUTO 10006KT 1 3/4SM BR OVC008 03/03 A3055 RMK AO2 CIG
                 003V011 =
2018-02-23 09:31 METAR KTHV 231431Z AUTO 13006KT 2 1/2SM BR OVC008 03/03 A3056 RMK AO2 T00330033
                 =
2018-02-23 09:23 METAR KTHV 231423Z AUTO 12006KT 3SM BR OVC010 03/03 A3056 RMK AO2 T00330033 =
2018-02-23 09:15 METAR KTHV 231415Z AUTO 11005KT 2 1/2SM BR BKN010 OVC016 03/03 A3056 RMK AO2
                 T00330033 =
2018-02-23 09:03 METAR KTHV 231403Z AUTO 12006KT 3SM BR BKN012 OVC017 03/03 A3057 RMK AO2
                 T00330028 =
2018-02-23 08:53 METAR KTHV 231353Z AUTO 10005KT 4SM BR FEW009 OVC016 03/03 A3057 RMK AO2 RAE25
                 SLP358 P0000 T00330033 =
2018-02-23 08:20 METAR KTHV 231320Z AUTO 13008KT 10SM -RA FEW009 SCT013 OVC022 03/03 A3057 RMK
                 AO2 P0000 T00330028 =
2018-02-23 08:01 METAR KTHV 231301Z AUTO 14004KT 4SM -RA BR FEW006 OVC010 03/03 A3058 RMK AO2
                 P0000 T00330033 =
2018-02-23 07:53 METAR KTHV 231253Z AUTO 15006KT 3SM -RA BR OVC010 03/03 A3057 RMK AO2 RAB03 CIG
                 004V013 SLP359 P0008 T00330033 =
2018-02-23 07:44 METAR KTHV 231244Z AUTO 14007KT 3SM -RA BR BKN007 OVC012 03/03 A3057 RMK AO2
                 RAB03 CIG 004V009 P0008 T00330033 =
2018-02-23 07:37 METAR KTHV 231237Z AUTO 13004KT 2 1/2SM -RA BR OVC007 03/03 A3057 RMK AO2 RAB03
                 CIG 004V009 P0007 T00330033 =
2018-02-23 07:32 METAR KTHV 231232Z AUTO 12004KT 1 3/4SM -RA BR BKN006 OVC011 03/03 A3057 RMK AO2
                 RAB03 P0007 T00330033 =
2018-02-23 07:23 METAR KTHV 231223Z AUTO 11003KT 2SM RA BR BKN006 OVC011 03/03 A3057 RMK AO2
                 RAB03 P0005 T00330033 =
2018-02-23 07:10 METAR KTHV 231210Z AUTO 10003KT 2SM RA BR SCT009 BKN014 OVC021 03/03 A3057 RMK
                 AO2 RAB03 P0003 T00330033 =
2018-02-23 07:04 METAR KTHV 231204Z AUTO 09004KT 5SM -RA BR BKN011 BKN017 OVC022 03/03 A3057 RMK
                 AO2 RAB03 P0000 T00330033 =
2018-02-23 06:53 METAR KTHV 231153Z AUTO 00000KT 8SM SCT011 OVC022 03/03 A3057 RMK AO2 RAE49
                 SLP359 P0001 60010 70029 T00330033 10039 20033 55001 =
2018-02-23 06:35 METAR KTHV 231135Z AUTO 08003KT 6SM -RA BR FEW009 BKN022 OVC027 03/03 A3056 RMK
                 AO2 P0001 T00330033 =
2018-02-23 06:16 METAR KTHV 231116Z AUTO 11005KT 7SM -RA OVC015 03/03 A3055 RMK AO2 P0000
                 T00330033 =
2018-02-23 05:53 METAR KTHV 231053Z AUTO 10006KT 7SM -RA OVC013 03/03 A3056 RMK AO2 RAE17B44
                 SLP353 P0001 T00330033 =
2018-02-23 05:15 METAR KTHV 231015Z AUTO 10004KT 6SM -RA BR FEW007 SCT010 OVC014 03/03 A3057 RMK
                 AO2 P0001 T00330033 =
2018-02-23 04:53 METAR KTHV 230953Z AUTO 09005KT 5SM -RA BR OVC007 03/03 A3056 RMK AO2 SLP354
                 P0004 T00330033 =
2018-02-23 04:39 METAR KTHV 230939Z AUTO 08004KT 4SM -RA BR OVC006 03/03 A3056 RMK AO2 P0004
                 T00330033 =
2018-02-23 04:28 METAR KTHV 230928Z AUTO 09007KT 2 1/2SM RA BR OVC006 03/03 A3056 RMK AO2 P0003
                 T00330033 =
2018-02-23 04:18 METAR KTHV 230918Z AUTO 08006KT 4SM -RA BR OVC005 03/03 A3057 RMK AO2 CIG
                 004V008 P0001 T00330033 =
2018-02-23 03:53 METAR KTHV 230853Z AUTO 07006KT 3SM -RA BR OVC007 03/03 A3058 RMK AO2 RAE09B23
                 CIG 003V009 SLP360 P0001 60004 T00330033 56012 =
2018-02-23 03:16 METAR KTHV 230816Z AUTO 07004KT 5SM BR OVC005 03/03 A3058 RMK AO2 RAE09 CIG
                 004V009 P0000 T00330033 =
2018-02-23 03:01 METAR KTHV 230801Z AUTO 07006KT 4SM -RA BR OVC004 03/03 A3058 RMK AO2 CIG
                 003V008 P0000 T00330033 =
2018-02-23 02:53 METAR KTHV 230753Z AUTO 05007KT 2 1/2SM -RA BR OVC004 03/03 A3059 RMK AO2 RAB41
                 SLP365 P0003 T00330033 =
2018-02-23 02:34 METAR KTHV 230734Z AUTO 08006KT 2 1/2SM BR BKN004 OVC008 03/03 A3059 RMK AO2
                 T00330033 =
2018-02-23 02:17 METAR KTHV 230717Z AUTO 07004KT 7SM OVC008 04/04 A3060 RMK AO2 CIG 004V010
                 T00390039 =
2018-02-23 02:05 METAR KTHV 230705Z AUTO 07006KT 7SM OVC006 04/03 A3060 RMK AO2 CIG 003V009
                 T00390033 =
2018-02-23 01:53 METAR KTHV 230653Z AUTO 06005KT 3SM BR OVC004 04/04 A3060 RMK AO2 RAB16E35 CIG
                 003V008 SLP367 P0000 T00390039 =
2018-02-23 01:44 METAR KTHV 230644Z AUTO 07003KT 2 1/2SM BR BKN005 OVC009 04/04 A3059 RMK AO2
                 RAB16E35 P0000 T00390039 =
2018-02-23 01:35 METAR KTHV 230635Z AUTO 10006KT 2SM BR BKN005 OVC012 04/04 A3058 RMK AO2
                 RAB16E35 P0000 T00390039 =
2018-02-23 01:28 METAR KTHV 230628Z AUTO 08004KT 2SM -RA BR BKN004 OVC012 04/04 A3059 RMK AO2
                 RAB16 CIG 003V007 P0000 T00390039 =
2018-02-23 01:15 METAR KTHV 230615Z AUTO 09007KT 1 3/4SM BR FEW004 OVC011 04/04 A3057 RMK AO2
                 PRESFR T00390039 =
2018-02-23 01:04 METAR KTHV 230604Z AUTO 09005KT 2SM BR SCT008 OVC013 04/03 A3060 RMK AO2
                 T00390033 =
2018-02-23 00:53 METAR KTHV 230553Z AUTO 09003KT 4SM BR SCT007 OVC012 04/04 A3061 RMK AO2 SLP372
                 T00390039 10044 20039 53004 =
2018-02-23 00:20 METAR KTHV 230520Z AUTO 07003KT 4SM BR FEW007 OVC014 04/04 A3061 RMK AO2
                 T00390039 =
2018-02-23 00:02 METAR KTHV 230502Z AUTO 07007KT 5SM BR SCT008 OVC015 04/03 A3058 RMK AO2
                 T00390033 =
2018-02-22 23:53 METAR KTHV 230453Z AUTO 08007KT 5SM BR BKN008 OVC015 04/03 A3059 RMK AO2 CIG
                 006V011 SLP364 T00390033 401220039 =
2018-02-22 23:25 METAR KTHV 230425Z AUTO 05004KT 7SM BKN008 OVC014 04/04 A3060 RMK AO2 CIG
                 007V011 T00390039 =
2018-02-22 23:14 METAR KTHV 230414Z AUTO 04004KT 9SM SCT008 OVC014 04/03 A3060 RMK AO2 T00390033
                 =
2018-02-22 23:10 METAR KTHV 230410Z AUTO 04004KT 10SM SCT010 OVC016 04/03 A3060 RMK AO2 T00390033
                 =
2018-02-22 23:03 METAR KTHV 230403Z AUTO 06005KT 10SM BKN008 OVC016 04/03 A3060 RMK AO2 CIG
                 007V013 T00390033 =
2018-02-22 22:53 METAR KTHV 230353Z AUTO 05003KT 10SM BKN013 OVC018 04/03 A3062 RMK AO2 SLP374
                 T00440033 =
2018-02-22 21:53 METAR KTHV 230253Z AUTO 06005KT 10SM BKN017 OVC027 04/03 A3060 RMK AO2 SLP368
                 T00440033 53007 =
2018-02-22 20:53 METAR KTHV 230153Z AUTO 10004KT 10SM SCT013 OVC029 04/03 A3060 RMK AO2 SLP368
                 T00440033 =
2018-02-22 20:07 METAR KTHV 230107Z AUTO 12006KT 10SM FEW012 OVC030 04/03 A3058 RMK AO2 T00440033
                 =
2018-02-22 19:53 METAR KTHV 230053Z AUTO 12007KT 10SM OVC029 04/03 A3058 RMK AO2 SLP361 T00440033
                 =
2018-02-22 18:53 METAR KTHV 222353Z AUTO 09009KT 10SM FEW013 OVC032 04/03 A3057 RMK AO2 SLP357
                 60016 T00390033 10061 20039 50008 =
2018-02-22 18:45 METAR KTHV 222345Z AUTO 10009KT 10SM SCT013 OVC032 04/03 A3056 RMK AO2 T00390033
                 =
2018-02-22 17:53 METAR KTHV 222253Z AUTO 07008KT 10SM OVC012 04/03 A3057 RMK AO2 RAE2158 SLP358
                 P0000 T00390033 =
2018-02-22 17:15 METAR KTHV 222215Z AUTO 05011KT 10SM OVC011 04/03 A3058 RMK AO2 RAE2158 P0000
                 T00390033 =
2018-02-22 16:53 METAR KTHV 222153Z AUTO 05009KT 3SM -RA BR BKN008 OVC013 04/04 A3057 RMK AO2
                 SLP358 P0003 T00440039 =
2018-02-22 16:45 METAR KTHV 222145Z AUTO 05008KT 2 1/2SM -RA BR BKN008 OVC013 04/04 A3057 RMK AO2
                 P0003 T00440039 =
2018-02-22 16:18 METAR KTHV 222118Z AUTO 04011KT 2 1/2SM -RA BR SCT007 OVC013 04/04 A3056 RMK AO2
                 P0002 T00440039 =
2018-02-22 16:10 METAR KTHV 222110Z AUTO 04010KT 2SM -RA BR BKN007 OVC013 04/04 A3055 RMK AO2
                 P0002 T00440044 =
2018-02-22 15:53 METAR KTHV 222053Z AUTO 04009KT 1 3/4SM -RA BR BKN007 OVC015 04/04 A3054 RMK AO2
                 SLP347 P0004 60013 T00440044 53023 =
2018-02-22 15:48 METAR KTHV 222048Z AUTO 03009KT 2SM -RA BR BKN007 OVC014 04/04 A3054 RMK AO2
                 P0004 =
2018-02-22 15:44 METAR KTHV 222044Z AUTO 05011KT 3SM -RA BR BKN006 OVC014 04/04 A3053 RMK AO2
                 P0004 T00440044 =
2018-02-22 15:35 METAR KTHV 222035Z AUTO 04012KT 2 1/2SM -RA BR BKN006 OVC012 04/04 A3052 RMK AO2
                 P0003 T00440044 =
2018-02-22 15:19 METAR KTHV 222019Z AUTO 04008G16KT 1 3/4SM -RA BR BKN006 BKN010 OVC021 05/04
                 A3052 RMK AO2 P0002 T00500044 =
2018-02-22 15:03 METAR KTHV 222003Z AUTO 04008KT 2SM -RA BR FEW006 BKN021 OVC027 05/05 A3052 RMK
                 AO2 P0001 T00500050 =
2018-02-22 14:53 METAR KTHV 221953Z AUTO 04008KT 2 1/2SM -RA BR SCT006 SCT012 OVC019 05/04 A3052
                 RMK AO2 SLP339 P0009 T00500044 =
2018-02-22 14:51 METAR KTHV 221951Z AUTO 04009KT 3SM -RA BR SCT006 BKN012 OVC019 05/04 A3052 RMK
                 AO2 P0009 =
2018-02-22 14:46 METAR KTHV 221946Z AUTO 04011KT 2 1/2SM -RA BR BKN006 BKN012 OVC017 05/05 A3052
                 RMK AO2 P0008 T00500050 =
2018-02-22 14:37 METAR KTHV 221937Z AUTO 02010KT 2SM -RA BR BKN006 BKN012 OVC016 05/05 A3052 RMK
                 AO2 P0008 T00500050 =
2018-02-22 14:29 METAR KTHV 221929Z AUTO 01008KT 1 1/2SM RA BR BKN004 OVC009 05/05 A3052 RMK AO2
                 P0007 T00500050 =
2018-02-22 13:53 METAR KTHV 221853Z AUTO 02007KT 1 1/4SM -RA BR OVC005 06/06 A3049 RMK AO2 RAB35
                 CIG 004V008 PRESRR SLP329 P0000 T00560056 =
2018-02-22 13:43 METAR KTHV 221843Z AUTO 04007KT 1 1/4SM -RA BR OVC005 06/06 A3047 RMK AO2 RAB35
                 CIG 004V010 P0000 T00560056 =

Support USWX by starting your Amazon purchase here.